sensor_id;sensor_type;location;lat;lon;timestamp;pressure;altitude;pressure_sealevel;temperature;humidity
44079;BME280;29744;49.078;12.878;2022-12-13T00:02:47;95872.88;;;16.76;31.90
44079;BME280;29744;49.078;12.878;2022-12-13T00:07:47;95863.88;;;16.71;31.42
44079;BME280;29744;49.078;12.878;2022-12-13T00:12:48;95859.16;;;16.68;32.04
44079;BME280;29744;49.078;12.878;2022-12-13T00:17:48;95867.22;;;16.65;31.81
44079;BME280;29744;49.078;12.878;2022-12-13T00:22:50;95863.63;;;16.61;31.98
44079;BME280;29744;49.078;12.878;2022-12-13T00:27:51;95861.19;;;16.56;31.56
44079;BME280;29744;49.078;12.878;2022-12-13T00:32:51;95863.34;;;16.50;32.18
44079;BME280;29744;49.078;12.878;2022-12-13T00:37:51;95863.25;;;16.47;32.27
44079;BME280;29744;49.078;12.878;2022-12-13T00:42:51;95855.41;;;16.41;32.16
44079;BME280;29744;49.078;12.878;2022-12-13T00:47:52;95856.78;;;16.35;32.17
44079;BME280;29744;49.078;12.878;2022-12-13T00:52:52;95851.63;;;16.30;32.35
44079;BME280;29744;49.078;12.878;2022-12-13T00:57:53;95853.00;;;16.24;32.10
44079;BME280;29744;49.078;12.878;2022-12-13T01:02:53;95849.00;;;16.18;32.20
44079;BME280;29744;49.078;12.878;2022-12-13T01:07:53;95848.13;;;16.14;32.22
44079;BME280;29744;49.078;12.878;2022-12-13T01:12:54;95843.75;;;16.09;32.15
44079;BME280;29744;49.078;12.878;2022-12-13T01:17:54;95833.19;;;16.04;32.56
44079;BME280;29744;49.078;12.878;2022-12-13T01:22:54;95835.03;;;16.00;32.11
44079;BME280;29744;49.078;12.878;2022-12-13T01:27:54;95829.09;;;15.95;32.57
44079;BME280;29744;49.078;12.878;2022-12-13T01:32:55;95833.97;;;15.89;32.76
44079;BME280;29744;49.078;12.878;2022-12-13T01:37:55;95836.91;;;15.84;32.60
44079;BME280;29744;49.078;12.878;2022-12-13T01:42:55;95824.75;;;15.78;32.89
44079;BME280;29744;49.078;12.878;2022-12-13T01:48:00;95835.03;;;15.72;32.51
44079;BME280;29744;49.078;12.878;2022-12-13T01:53:06;95828.31;;;15.66;32.86
44079;BME280;29744;49.078;12.878;2022-12-13T01:58:07;95815.81;;;15.62;32.62
44079;BME280;29744;49.078;12.878;2022-12-13T02:03:08;95825.75;;;15.58;32.69
44079;BME280;29744;49.078;12.878;2022-12-13T02:08:10;95809.78;;;15.53;32.86
44079;BME280;29744;49.078;12.878;2022-12-13T02:13:11;95812.38;;;15.49;33.06
44079;BME280;29744;49.078;12.878;2022-12-13T02:24:10;95803.09;;;15.34;33.05
44079;BME280;29744;49.078;12.878;2022-12-13T02:34:25;95792.78;;;15.24;32.91
44079;BME280;29744;49.078;12.878;2022-12-13T02:39:32;95797.31;;;15.20;33.15
44079;BME280;29744;49.078;12.878;2022-12-13T02:44:50;95791.34;;;15.14;33.40
44079;BME280;29744;49.078;12.878;2022-12-13T02:49:58;95787.78;;;15.10;33.25
44079;BME280;29744;49.078;12.878;2022-12-13T02:55:06;95784.19;;;15.06;33.30
44079;BME280;29744;49.078;12.878;2022-12-13T03:00:20;95784.09;;;15.03;33.38
44079;BME280;29744;49.078;12.878;2022-12-13T03:05:45;95779.69;;;14.98;33.89
44079;BME280;29744;49.078;12.878;2022-12-13T03:11:09;95778.34;;;14.92;33.47
44079;BME280;29744;49.078;12.878;2022-12-13T03:21:24;95778.91;;;14.86;33.95
44079;BME280;29744;49.078;12.878;2022-12-13T03:26:25;95777.25;;;14.81;33.68
44079;BME280;29744;49.078;12.878;2022-12-13T03:31:26;95774.44;;;14.77;34.00
44079;BME280;29744;49.078;12.878;2022-12-13T03:36:26;95777.38;;;14.72;33.77
44079;BME280;29744;49.078;12.878;2022-12-13T03:41:27;95774.56;;;14.69;33.82
44079;BME280;29744;49.078;12.878;2022-12-13T03:46:32;95777.94;;;14.66;34.04
44079;BME280;29744;49.078;12.878;2022-12-13T03:51:32;95775.47;;;14.61;34.32
44079;BME280;29744;49.078;12.878;2022-12-13T03:56:33;95766.94;;;14.59;33.77
44079;BME280;29744;49.078;12.878;2022-12-13T04:01:33;95751.44;;;14.56;33.96
44079;BME280;29744;49.078;12.878;2022-12-13T04:06:34;95755.16;;;14.51;34.14
44079;BME280;29744;49.078;12.878;2022-12-13T04:11:34;95752.00;;;14.49;34.17
44079;BME280;29744;49.078;12.878;2022-12-13T04:16:53;95744.13;;;14.44;34.39
44079;BME280;29744;49.078;12.878;2022-12-13T04:21:53;95752.91;;;14.41;34.48
44079;BME280;29744;49.078;12.878;2022-12-13T04:26:54;95748.19;;;14.38;34.37
44079;BME280;29744;49.078;12.878;2022-12-13T04:31:54;95740.00;;;14.34;34.58
44079;BME280;29744;49.078;12.878;2022-12-13T04:36:54;95736.06;;;14.32;34.71
44079;BME280;29744;49.078;12.878;2022-12-13T04:41:55;95729.09;;;14.31;34.80
44079;BME280;29744;49.078;12.878;2022-12-13T04:46:55;95731.34;;;14.29;34.44
44079;BME280;29744;49.078;12.878;2022-12-13T04:51:56;95722.56;;;14.32;34.69
44079;BME280;29744;49.078;12.878;2022-12-13T04:56:56;95720.78;;;14.36;34.65
44079;BME280;29744;49.078;12.878;2022-12-13T05:01:57;95714.81;;;14.42;34.12
44079;BME280;29744;49.078;12.878;2022-12-13T05:06:57;95711.97;;;14.51;34.20
44079;BME280;29744;49.078;12.878;2022-12-13T05:11:57;95710.72;;;14.61;34.34
44079;BME280;29744;49.078;12.878;2022-12-13T05:16:59;95712.59;;;14.72;34.55
44079;BME280;29744;49.078;12.878;2022-12-13T05:22:00;95713.00;;;14.87;34.65
44079;BME280;29744;49.078;12.878;2022-12-13T05:27:00;95707.22;;;15.00;34.35
44079;BME280;29744;49.078;12.878;2022-12-13T05:32:01;95714.94;;;15.14;34.01
44079;BME280;29744;49.078;12.878;2022-12-13T05:37:01;95710.72;;;15.29;34.50
44079;BME280;29744;49.078;12.878;2022-12-13T05:42:02;95716.16;;;15.44;34.18
44079;BME280;29744;49.078;12.878;2022-12-13T05:47:02;95725.84;;;15.61;34.34
44079;BME280;29744;49.078;12.878;2022-12-13T05:52:03;95721.59;;;15.76;34.42
44079;BME280;29744;49.078;12.878;2022-12-13T05:57:03;95712.28;;;15.89;34.21
44079;BME280;29744;49.078;12.878;2022-12-13T06:02:03;95723.09;;;16.05;33.57
44079;BME280;29744;49.078;12.878;2022-12-13T06:07:04;95710.25;;;16.18;33.95
44079;BME280;29744;49.078;12.878;2022-12-13T06:12:05;95712.50;;;16.31;33.87
44079;BME280;29744;49.078;12.878;2022-12-13T06:17:06;95709.69;;;16.44;33.42
44079;BME280;29744;49.078;12.878;2022-12-13T06:22:06;95707.25;;;16.54;33.57
44079;BME280;29744;49.078;12.878;2022-12-13T06:27:06;95714.47;;;16.66;33.30
44079;BME280;29744;49.078;12.878;2022-12-13T06:32:06;95715.03;;;16.75;33.42
44079;BME280;29744;49.078;12.878;2022-12-13T06:37:10;95711.69;;;16.82;33.36
44079;BME280;29744;49.078;12.878;2022-12-13T06:42:16;95711.41;;;16.87;33.49
44079;BME280;29744;49.078;12.878;2022-12-13T06:47:17;95708.00;;;16.90;33.22
44079;BME280;29744;49.078;12.878;2022-12-13T06:52:17;95711.91;;;16.92;32.98
44079;BME280;29744;49.078;12.878;2022-12-13T06:57:18;95715.41;;;16.93;32.98
44079;BME280;29744;49.078;12.878;2022-12-13T07:02:18;95717.34;;;16.92;32.85
44079;BME280;29744;49.078;12.878;2022-12-13T07:07:18;95718.72;;;15.85;29.06
44079;BME280;29744;49.078;12.878;2022-12-13T07:12:19;95734.91;;;13.84;27.83
44079;BME280;29744;49.078;12.878;2022-12-13T07:17:20;95745.06;;;12.00;27.47
44079;BME280;29744;49.078;12.878;2022-12-13T07:22:20;95744.31;;;11.18;28.00
44079;BME280;29744;49.078;12.878;2022-12-13T07:27:20;95741.63;;;11.35;27.91
44079;BME280;29744;49.078;12.878;2022-12-13T07:32:21;95731.41;;;11.75;27.88
44079;BME280;29744;49.078;12.878;2022-12-13T07:37:21;95735.00;;;12.17;28.32
44079;BME280;29744;49.078;12.878;2022-12-13T07:42:21;95737.31;;;12.57;28.51
44079;BME280;29744;49.078;12.878;2022-12-13T07:47:21;95732.47;;;12.92;28.52
44079;BME280;29744;49.078;12.878;2022-12-13T07:52:22;95723.94;;;13.23;28.34
44079;BME280;29744;49.078;12.878;2022-12-13T07:57:22;95729.88;;;13.49;28.49
44079;BME280;29744;49.078;12.878;2022-12-13T08:02:23;95731.38;;;13.71;29.07
44079;BME280;29744;49.078;12.878;2022-12-13T08:07:23;95719.63;;;13.88;28.96
44079;BME280;29744;49.078;12.878;2022-12-13T08:12:23;95729.41;;;14.05;28.83
44079;BME280;29744;49.078;12.878;2022-12-13T08:17:24;95728.19;;;14.14;28.78
44079;BME280;29744;49.078;12.878;2022-12-13T08:22:24;95724.72;;;14.26;29.41
44079;BME280;29744;49.078;12.878;2022-12-13T08:27:25;95727.63;;;14.33;29.08
44079;BME280;29744;49.078;12.878;2022-12-13T08:32:26;95725.16;;;14.40;29.48
44079;BME280;29744;49.078;12.878;2022-12-13T08:37:26;95734.59;;;14.46;29.86
44079;BME280;29744;49.078;12.878;2022-12-13T08:42:27;95727.38;;;14.50;29.32
44079;BME280;29744;49.078;12.878;2022-12-13T08:47:27;95725.91;;;14.53;29.82
44079;BME280;29744;49.078;12.878;2022-12-13T08:52:27;95732.53;;;14.56;29.56
44079;BME280;29744;49.078;12.878;2022-12-13T08:57:28;95727.94;;;14.56;30.00
44079;BME280;29744;49.078;12.878;2022-12-13T09:02:28;95731.41;;;14.57;29.53
44079;BME280;29744;49.078;12.878;2022-12-13T09:07:28;95735.69;;;14.58;29.71
44079;BME280;29744;49.078;12.878;2022-12-13T09:12:29;95742.22;;;14.57;30.27
44079;BME280;29744;49.078;12.878;2022-12-13T09:17:29;95746.03;;;14.56;29.85
44079;BME280;29744;49.078;12.878;2022-12-13T09:22:31;95744.47;;;14.55;30.39
44079;BME280;29744;49.078;12.878;2022-12-13T09:27:31;95746.72;;;14.53;30.13
44079;BME280;29744;49.078;12.878;2022-12-13T09:32:32;95741.66;;;14.51;30.55
44079;BME280;29744;49.078;12.878;2022-12-13T09:37:33;95736.94;;;14.48;30.06
44079;BME280;29744;49.078;12.878;2022-12-13T09:42:34;95729.97;;;14.47;30.36
44079;BME280;29744;49.078;12.878;2022-12-13T09:47:40;95724.13;;;14.45;30.74
44079;BME280;29744;49.078;12.878;2022-12-13T09:52:42;95717.50;;;14.42;30.73
44079;BME280;29744;49.078;12.878;2022-12-13T09:57:43;95697.72;;;14.38;30.97
44079;BME280;29744;49.078;12.878;2022-12-13T10:02:51;95695.72;;;14.35;30.82
44079;BME280;29744;49.078;12.878;2022-12-13T10:07:54;95693.34;;;14.34;30.74
44079;BME280;29744;49.078;12.878;2022-12-13T10:18:32;95683.47;;;14.26;31.30
44079;BME280;29744;49.078;12.878;2022-12-13T10:23:33;95674.16;;;14.23;30.99
44079;BME280;29744;49.078;12.878;2022-12-13T10:28:33;95679.84;;;14.22;31.38
44079;BME280;29744;49.078;12.878;2022-12-13T10:33:36;95665.94;;;14.19;31.34
44079;BME280;29744;49.078;12.878;2022-12-13T10:38:42;95664.69;;;14.17;31.42
44079;BME280;29744;49.078;12.878;2022-12-13T10:43:43;95656.94;;;14.15;31.34
44079;BME280;29744;49.078;12.878;2022-12-13T10:48:48;95652.22;;;14.12;31.30
44079;BME280;29744;49.078;12.878;2022-12-13T10:53:55;95659.09;;;14.10;31.42
44079;BME280;29744;49.078;12.878;2022-12-13T10:59:23;95641.56;;;14.04;31.87
44079;BME280;29744;49.078;12.878;2022-12-13T11:04:34;95641.69;;;13.95;31.92
44079;BME280;29744;49.078;12.878;2022-12-13T11:09:35;95631.81;;;13.99;31.73
44079;BME280;29744;49.078;12.878;2022-12-13T11:14:39;95641.00;;;13.98;31.98
44079;BME280;29744;49.078;12.878;2022-12-13T11:19:48;95639.78;;;13.96;31.82
44079;BME280;29744;49.078;12.878;2022-12-13T11:24:54;95634.72;;;13.94;31.74
44079;BME280;29744;49.078;12.878;2022-12-13T11:30:08;95629.69;;;13.93;32.12
44079;BME280;29744;49.078;12.878;2022-12-13T11:35:20;95628.44;;;13.90;32.00
44079;BME280;29744;49.078;12.878;2022-12-13T11:40:26;95627.66;;;13.90;32.27
44079;BME280;29744;49.078;12.878;2022-12-13T11:45:32;95619.13;;;13.88;32.12
44079;BME280;29744;49.078;12.878;2022-12-13T11:50:38;95619.03;;;13.84;31.94
44079;BME280;29744;49.078;12.878;2022-12-13T11:55:54;95620.94;;;13.83;32.14
44079;BME280;29744;49.078;12.878;2022-12-13T12:01:02;95611.59;;;13.81;32.48
44079;BME280;29744;49.078;12.878;2022-12-13T12:11:19;95598.00;;;13.77;32.19
44079;BME280;29744;49.078;12.878;2022-12-13T12:16:36;95596.44;;;13.76;32.46
44079;BME280;29744;49.078;12.878;2022-12-13T12:32:20;95587.78;;;13.71;32.38
44079;BME280;29744;49.078;12.878;2022-12-13T12:48:10;95572.63;;;13.66;33.09
44079;BME280;29744;49.078;12.878;2022-12-13T12:58:38;95562.09;;;13.61;32.79
44079;BME280;29744;49.078;12.878;2022-12-13T13:03:42;95564.00;;;13.61;32.81
44079;BME280;29744;49.078;12.878;2022-12-13T13:13:47;95567.38;;;13.58;33.28
44079;BME280;29744;49.078;12.878;2022-12-13T13:18:50;95572.31;;;13.55;33.35
44079;BME280;29744;49.078;12.878;2022-12-13T13:34:33;95585.22;;;13.50;33.12
44079;BME280;29744;49.078;12.878;2022-12-13T13:50:27;95590.03;;;13.44;33.16
44079;BME280;29744;49.078;12.878;2022-12-13T13:55:37;95591.16;;;13.43;33.39
44079;BME280;29744;49.078;12.878;2022-12-13T14:12:03;95594.72;;;13.35;33.26
44079;BME280;29744;49.078;12.878;2022-12-13T14:17:15;95598.19;;;13.36;33.33
44079;BME280;29744;49.078;12.878;2022-12-13T14:28:00;95601.91;;;13.31;33.51
44079;BME280;29744;49.078;12.878;2022-12-13T14:33:02;95585.28;;;13.29;33.69
44079;BME280;29744;49.078;12.878;2022-12-13T14:38:19;95583.25;;;13.26;33.95
44079;BME280;29744;49.078;12.878;2022-12-13T14:43:24;95584.16;;;13.18;33.74
44079;BME280;29744;49.078;12.878;2022-12-13T14:48:25;95589.31;;;13.23;33.77
44079;BME280;29744;49.078;12.878;2022-12-13T14:53:33;95582.38;;;13.22;33.86
44079;BME280;29744;49.078;12.878;2022-12-13T14:58:36;95581.59;;;13.21;33.56
44079;BME280;29744;49.078;12.878;2022-12-13T15:03:37;95572.28;;;13.19;33.59
44079;BME280;29744;49.078;12.878;2022-12-13T15:08:37;95569.13;;;13.17;33.73
44079;BME280;29744;49.078;12.878;2022-12-13T15:13:47;95579.44;;;13.15;33.53
44079;BME280;29744;49.078;12.878;2022-12-13T15:19:14;95579.00;;;13.13;33.79
44079;BME280;29744;49.078;12.878;2022-12-13T15:24:25;95582.81;;;13.12;34.14
44079;BME280;29744;49.078;12.878;2022-12-13T15:29:29;95582.81;;;13.12;34.00
44079;BME280;29744;49.078;12.878;2022-12-13T15:34:35;95582.69;;;13.08;34.19
44079;BME280;29744;49.078;12.878;2022-12-13T15:39:37;95589.97;;;13.08;34.13
44079;BME280;29744;49.078;12.878;2022-12-13T15:44:53;95589.84;;;13.04;34.19
44079;BME280;29744;49.078;12.878;2022-12-13T15:49:58;95598.72;;;13.05;34.06
44079;BME280;29744;49.078;12.878;2022-12-13T16:05:30;95593.88;;;12.98;34.07
44079;BME280;29744;49.078;12.878;2022-12-13T16:10:33;95596.56;;;12.98;34.14
44079;BME280;29744;49.078;12.878;2022-12-13T16:15:48;95588.16;;;13.00;33.76
44079;BME280;29744;49.078;12.878;2022-12-13T16:20:48;95590.97;;;13.03;34.15
44079;BME280;29744;49.078;12.878;2022-12-13T16:25:52;95584.59;;;13.08;34.07
44079;BME280;29744;49.078;12.878;2022-12-13T16:35:53;95592.47;;;13.25;33.48
44079;BME280;29744;49.078;12.878;2022-12-13T16:40:55;95590.13;;;13.36;33.67
44079;BME280;29744;49.078;12.878;2022-12-13T16:45:58;95592.06;;;13.47;33.47
44079;BME280;29744;49.078;12.878;2022-12-13T16:51:01;95589.38;;;13.60;33.36
44079;BME280;29744;49.078;12.878;2022-12-13T16:56:05;95584.75;;;13.72;33.69
44079;BME280;29744;49.078;12.878;2022-12-13T17:01:09;95586.34;;;13.85;33.83
44079;BME280;29744;49.078;12.878;2022-12-13T17:06:11;95579.47;;;14.00;33.48
44079;BME280;29744;49.078;12.878;2022-12-13T17:11:11;95571.34;;;14.12;33.37
44079;BME280;29744;49.078;12.878;2022-12-13T17:16:11;95575.25;;;14.27;33.37
44079;BME280;29744;49.078;12.878;2022-12-13T17:21:13;95578.69;;;14.40;33.25
44079;BME280;29744;49.078;12.878;2022-12-13T17:26:13;95582.91;;;14.53;33.39
44079;BME280;29744;49.078;12.878;2022-12-13T17:31:14;95569.03;;;14.67;33.26
44079;BME280;29744;49.078;12.878;2022-12-13T17:36:15;95577.84;;;14.79;33.20
44079;BME280;29744;49.078;12.878;2022-12-13T17:41:16;95576.66;;;14.93;32.79
44079;BME280;29744;49.078;12.878;2022-12-13T17:46:18;95569.28;;;15.05;32.96
44079;BME280;29744;49.078;12.878;2022-12-13T17:51:18;95567.63;;;15.17;33.02
44079;BME280;29744;49.078;12.878;2022-12-13T17:56:18;95564.84;;;15.29;32.34
44079;BME280;29744;49.078;12.878;2022-12-13T18:01:22;95553.94;;;15.41;32.33
44079;BME280;29744;49.078;12.878;2022-12-13T18:06:24;95553.06;;;15.53;32.52
44079;BME280;29744;49.078;12.878;2022-12-13T18:11:25;95540.56;;;15.64;32.36
44079;BME280;29744;49.078;12.878;2022-12-13T18:16:26;95552.41;;;15.75;32.56
44079;BME280;29744;49.078;12.878;2022-12-13T18:21:27;95554.59;;;15.85;31.98
44079;BME280;29744;49.078;12.878;2022-12-13T18:26:27;95556.75;;;15.95;31.93
44079;BME280;29744;49.078;12.878;2022-12-13T18:31:27;95551.56;;;16.06;32.03
44079;BME280;29744;49.078;12.878;2022-12-13T18:36:28;95549.44;;;16.15;32.09
44079;BME280;29744;49.078;12.878;2022-12-13T18:41:30;95554.63;;;16.24;31.51
44079;BME280;29744;49.078;12.878;2022-12-13T18:46:32;95551.38;;;16.34;32.08
44079;BME280;29744;49.078;12.878;2022-12-13T18:51:33;95540.72;;;16.41;31.38
44079;BME280;29744;49.078;12.878;2022-12-13T18:56:34;95535.06;;;16.50;31.56
44079;BME280;29744;49.078;12.878;2022-12-13T19:01:34;95536.03;;;16.57;31.27
44079;BME280;29744;49.078;12.878;2022-12-13T19:06:34;95540.44;;;16.65;31.60
44079;BME280;29744;49.078;12.878;2022-12-13T19:11:35;95535.94;;;16.73;31.22
44079;BME280;29744;49.078;12.878;2022-12-13T19:16:35;95539.53;;;16.81;31.38
44079;BME280;29744;49.078;12.878;2022-12-13T19:21:36;95526.13;;;16.88;31.09
44079;BME280;29744;49.078;12.878;2022-12-13T19:26:36;95523.19;;;16.96;30.90
44079;BME280;29744;49.078;12.878;2022-12-13T19:31:36;95534.91;;;17.04;31.07
44079;BME280;29744;49.078;12.878;2022-12-13T19:36:37;95529.63;;;17.11;30.90
44079;BME280;29744;49.078;12.878;2022-12-13T19:41:37;95531.66;;;17.18;31.29
44079;BME280;29744;49.078;12.878;2022-12-13T19:46:37;95535.22;;;17.22;30.79
44079;BME280;29744;49.078;12.878;2022-12-13T19:51:38;95538.84;;;17.29;30.80
44079;BME280;29744;49.078;12.878;2022-12-13T19:56:39;95532.34;;;17.34;31.01
44079;BME280;29744;49.078;12.878;2022-12-13T20:01:39;95539.38;;;17.39;30.39
44079;BME280;29744;49.078;12.878;2022-12-13T20:06:40;95538.66;;;17.42;30.61
44079;BME280;29744;49.078;12.878;2022-12-13T20:11:40;95537.94;;;17.45;30.43
44079;BME280;29744;49.078;12.878;2022-12-13T20:16:40;95529.81;;;17.45;30.66
44079;BME280;29744;49.078;12.878;2022-12-13T20:21:45;95510.03;;;17.44;30.82
44079;BME280;29744;49.078;12.878;2022-12-13T20:26:45;95505.00;;;17.43;30.88
44079;BME280;29744;49.078;12.878;2022-12-13T20:31:48;95495.66;;;17.40;30.54
44079;BME280;29744;49.078;12.878;2022-12-13T20:36:49;95485.53;;;17.37;30.33
44079;BME280;29744;49.078;12.878;2022-12-13T20:41:49;95493.25;;;17.35;30.72
44079;BME280;29744;49.078;12.878;2022-12-13T20:46:49;95497.13;;;17.34;30.58
44079;BME280;29744;49.078;12.878;2022-12-13T20:51:50;95468.03;;;17.31;30.51
44079;BME280;29744;49.078;12.878;2022-12-13T20:56:50;95454.06;;;17.29;30.42
44079;BME280;29744;49.078;12.878;2022-12-13T21:01:51;95447.44;;;17.26;29.97
44079;BME280;29744;49.078;12.878;2022-12-13T21:06:51;95437.72;;;17.25;30.17
44079;BME280;29744;49.078;12.878;2022-12-13T21:11:51;95435.03;;;17.25;30.17
44079;BME280;29744;49.078;12.878;2022-12-13T21:16:54;95437.31;;;17.23;30.68
44079;BME280;29744;49.078;12.878;2022-12-13T21:21:55;95422.94;;;17.19;30.16
44079;BME280;29744;49.078;12.878;2022-12-13T21:26:55;95435.28;;;17.17;30.44
44079;BME280;29744;49.078;12.878;2022-12-13T21:31:56;95426.31;;;17.13;30.66
44079;BME280;29744;49.078;12.878;2022-12-13T21:36:56;95420.84;;;17.09;30.49
44079;BME280;29744;49.078;12.878;2022-12-13T21:41:56;95404.13;;;17.03;30.89
44079;BME280;29744;49.078;12.878;2022-12-13T21:46:57;95406.38;;;16.98;30.71
44079;BME280;29744;49.078;12.878;2022-12-13T21:51:57;95405.53;;;16.94;30.73
44079;BME280;29744;49.078;12.878;2022-12-13T21:56:57;95402.34;;;16.88;30.96
44079;BME280;29744;49.078;12.878;2022-12-13T22:02:17;95396.03;;;16.81;30.86
44079;BME280;29744;49.078;12.878;2022-12-13T22:07:22;95392.84;;;16.75;30.95
44079;BME280;29744;49.078;12.878;2022-12-13T22:12:26;95366.44;;;16.68;31.10
44079;BME280;29744;49.078;12.878;2022-12-13T22:17:28;95371.75;;;16.61;31.24
44079;BME280;29744;49.078;12.878;2022-12-13T22:22:28;95355.41;;;16.54;30.86
44079;BME280;29744;49.078;12.878;2022-12-13T22:27:29;95340.59;;;16.48;31.08
44079;BME280;29744;49.078;12.878;2022-12-13T22:32:30;95340.09;;;16.42;31.32
44079;BME280;29744;49.078;12.878;2022-12-13T22:37:30;95345.38;;;16.35;31.27
44079;BME280;29744;49.078;12.878;2022-12-13T22:42:32;95343.31;;;16.29;31.26
44079;BME280;29744;49.078;12.878;2022-12-13T22:47:32;95330.81;;;16.21;31.66
44079;BME280;29744;49.078;12.878;2022-12-13T22:52:32;95344.22;;;16.14;31.34
44079;BME280;29744;49.078;12.878;2022-12-13T22:57:33;95351.84;;;16.08;31.73
44079;BME280;29744;49.078;12.878;2022-12-13T23:02:33;95359.47;;;16.02;31.54
44079;BME280;29744;49.078;12.878;2022-12-13T23:07:34;95359.78;;;15.97;31.71
44079;BME280;29744;49.078;12.878;2022-12-13T23:12:34;95356.94;;;15.90;31.83
44079;BME280;29744;49.078;12.878;2022-12-13T23:17:53;95355.66;;;15.84;31.63
44079;BME280;29744;49.078;12.878;2022-12-13T23:22:53;95347.81;;;15.79;31.97
44079;BME280;29744;49.078;12.878;2022-12-13T23:27:54;95369.75;;;15.74;31.84
44079;BME280;29744;49.078;12.878;2022-12-13T23:32:54;95346.84;;;15.68;32.22
44079;BME280;29744;49.078;12.878;2022-12-13T23:37:54;95329.00;;;15.63;31.68
44079;BME280;29744;49.078;12.878;2022-12-13T23:42:55;95317.25;;;15.56;31.86
44079;BME280;29744;49.078;12.878;2022-12-13T23:47:55;95325.66;;;15.51;31.96
44079;BME280;29744;49.078;12.878;2022-12-13T23:52:55;95310.09;;;15.44;32.16
44079;BME280;29744;49.078;12.878;2022-12-13T23:57:56;95289.97;;;15.41;32.19
